Ralph Wenz Field
KPNA : now visible

Airfield :











YOU CAN JOIN US ON...

 
LOGIN :

Register | Disclaimer

   EN    FR    IT 

 









Legend :    VFR   Marginal VFR   IFR   Intensive IFR   Very Intensive IFR
Visi :
Ceiling :
>= 8 km
>= 3000ft
5 to 8 km
1000 to 3000 ft
1500m to 5 km
500 to 1000 ft
800 to 1500m
200 to 500 ft
< 800m
< 200 ft
Symbols :   Thunderstorms  Fog  Heavy snow  Heavy precipitations  Wind > 20 kt






- Airport Elevation : 7102 ft


KPNA - Ralph Wenz Field

CURRENT METAR :
  • 260255Z AUTO 29006KT 10SM CLR 07/M01 A3019 RMK AO2

EXPIRED METARs :
  • 260235Z AUTO 30005KT 10SM CLR 10/M02 A3018 RMK AO2
  • 260215Z AUTO 31009KT 10SM CLR 11/M02 A3018 RMK AO2
  • 260155Z AUTO 31011KT 10SM CLR 13/M03 A3018 RMK AO2
  • 260135Z AUTO 30011KT 10SM CLR 13/M03 A3017 RMK AO2
  • 260115Z AUTO 30013G16KT 10SM CLR 14/M03 A3017 RMK AO2
  • 260055Z AUTO 29012G17KT 10SM CLR 15/M04 A3016 RMK AO2
  • 260035Z AUTO 30013G18KT 10SM CLR 15/M05 A3016 RMK AO2
  • 260015Z AUTO 30011G15KT 10SM SCT075 14/M04 A3017 RMK AO2

TAF KPNA
Valid from the 26 at 00:00 until the 27 at 00:00 UTC


252320Z 2600/2624 31012G18KT P6SM SCT070
FM260200 30006KT P6SM FEW150
FM262000 30013G21KT P6SM BKN080
KZLC FIR / North America



MET'MAP, your aeronautical weather chart ! - Copyright ORBIFLY December 2007 - Disclaimer

ORBIFLY MET'MAP TEAM :

Programming & Development : Alexandra Zaïnal
Concept & original design : Baudouin d'Aumeries
Assistance for programming : Marc-Olivier Méhu
Technical & hardware support : Manuel Goepfert

Contact : metmap@orbifly.com




SOURCES & CREDITS :

   NOAA       Earth
Advisory